sensor_id;sensor_type;location;lat;lon;timestamp;pressure;altitude;pressure_sealevel;temperature;humidity
32875;BME280;40468;42.128;24.750;2024-02-16T00:00:12;100298.91;;;8.20;48.54
32875;BME280;40468;42.128;24.750;2024-02-16T00:01:46;100304.09;;;8.20;48.49
32875;BME280;40468;42.128;24.750;2024-02-16T00:03:17;100305.78;;;8.21;48.48
32875;BME280;40468;42.128;24.750;2024-02-16T00:04:49;100310.13;;;8.20;48.61
32875;BME280;40468;42.128;24.750;2024-02-16T00:06:20;100310.13;;;8.20;48.38
32875;BME280;40468;42.128;24.750;2024-02-16T00:07:54;100312.72;;;8.20;48.47
32875;BME280;40468;42.128;24.750;2024-02-16T00:09:25;100305.78;;;8.21;48.69
32875;BME280;40468;42.128;24.750;2024-02-16T00:10:57;100300.69;;;8.18;48.55
32875;BME280;40468;42.128;24.750;2024-02-16T00:12:28;100313.63;;;8.19;48.50
32875;BME280;40468;42.128;24.750;2024-02-16T00:14:00;100307.66;;;8.16;48.56
32875;BME280;40468;42.128;24.750;2024-02-16T00:15:31;100309.28;;;8.20;48.51
32875;BME280;40468;42.128;24.750;2024-02-16T00:17:04;100316.16;;;8.21;48.58
32875;BME280;40468;42.128;24.750;2024-02-16T00:18:35;100307.66;;;8.16;48.44
32875;BME280;40468;42.128;24.750;2024-02-16T00:20:07;100305.06;;;8.16;48.44
32875;BME280;40468;42.128;24.750;2024-02-16T00:21:38;100313.75;;;8.15;48.31
32875;BME280;40468;42.128;24.750;2024-02-16T00:23:13;100311.97;;;8.17;48.41
32875;BME280;40468;42.128;24.750;2024-02-16T00:24:44;100305.97;;;8.15;48.32
32875;BME280;40468;42.128;24.750;2024-02-16T00:26:16;100310.25;;;8.16;48.31
32875;BME280;40468;42.128;24.750;2024-02-16T00:27:47;100316.25;;;8.18;48.43
32875;BME280;40468;42.128;24.750;2024-02-16T00:29:18;100314.50;;;8.18;48.49
32875;BME280;40468;42.128;24.750;2024-02-16T00:30:49;100309.38;;;8.17;48.43
32875;BME280;40468;42.128;24.750;2024-02-16T00:32:21;100310.31;;;8.14;48.44
32875;BME280;40468;42.128;24.750;2024-02-16T00:33:54;100312.84;;;8.16;48.52
32875;BME280;40468;42.128;24.750;2024-02-16T00:35:26;100313.66;;;8.18;48.71
32875;BME280;40468;42.128;24.750;2024-02-16T00:36:57;100314.56;;;8.17;48.31
32875;BME280;40468;42.128;24.750;2024-02-16T00:38:30;100310.22;;;8.17;48.43
32875;BME280;40468;42.128;24.750;2024-02-16T00:40:01;100305.13;;;8.14;48.52
32875;BME280;40468;42.128;24.750;2024-02-16T00:41:33;100313.75;;;8.15;48.72
32875;BME280;40468;42.128;24.750;2024-02-16T00:43:03;100312.94;;;8.13;48.53
32875;BME280;40468;42.128;24.750;2024-02-16T00:44:35;100306.97;;;8.09;48.73
32875;BME280;40468;42.128;24.750;2024-02-16T00:46:06;100301.84;;;8.08;48.62
32875;BME280;40468;42.128;24.750;2024-02-16T00:47:38;100305.31;;;8.07;48.59
32875;BME280;40468;42.128;24.750;2024-02-16T00:49:10;100307.91;;;8.07;48.71
32875;BME280;40468;42.128;24.750;2024-02-16T00:50:42;100305.28;;;8.08;48.78
32875;BME280;40468;42.128;24.750;2024-02-16T00:52:13;100307.06;;;8.06;48.80
32875;BME280;40468;42.128;24.750;2024-02-16T00:53:46;100301.88;;;8.06;48.77
32875;BME280;40468;42.128;24.750;2024-02-16T00:55:17;100304.53;;;8.05;48.66
32875;BME280;40468;42.128;24.750;2024-02-16T00:56:49;100294.22;;;8.02;48.83
32875;BME280;40468;42.128;24.750;2024-02-16T00:58:20;100301.03;;;8.06;48.58
32875;BME280;40468;42.128;24.750;2024-02-16T00:59:51;100299.38;;;8.03;48.47
32875;BME280;40468;42.128;24.750;2024-02-16T01:01:22;100293.25;;;8.06;48.63
32875;BME280;40468;42.128;24.750;2024-02-16T01:02:56;100301.06;;;8.04;48.70
32875;BME280;40468;42.128;24.750;2024-02-16T01:04:27;100301.06;;;8.04;48.76
32875;BME280;40468;42.128;24.750;2024-02-16T01:06:00;100305.41;;;8.04;48.56
32875;BME280;40468;42.128;24.750;2024-02-16T01:07:31;100301.94;;;8.05;48.65
32875;BME280;40468;42.128;24.750;2024-02-16T01:09:04;100297.53;;;8.07;48.81
32875;BME280;40468;42.128;24.750;2024-02-16T01:10:35;100295.03;;;8.04;48.73
32875;BME280;40468;42.128;24.750;2024-02-16T01:12:06;100299.25;;;8.08;48.72
32875;BME280;40468;42.128;24.750;2024-02-16T01:13:39;100307.78;;;8.11;48.72
32875;BME280;40468;42.128;24.750;2024-02-16T01:15:11;100294.91;;;8.08;48.59
32875;BME280;40468;42.128;24.750;2024-02-16T01:16:41;100298.25;;;8.13;48.68
32875;BME280;40468;42.128;24.750;2024-02-16T01:18:13;100304.22;;;8.15;48.59
32875;BME280;40468;42.128;24.750;2024-02-16T01:19:44;100300.78;;;8.15;48.62
32875;BME280;40468;42.128;24.750;2024-02-16T01:21:17;100299.94;;;8.14;48.61
32875;BME280;40468;42.128;24.750;2024-02-16T01:22:48;100296.50;;;8.14;48.45
32875;BME280;40468;42.128;24.750;2024-02-16T01:24:21;100305.03;;;8.17;48.27
32875;BME280;40468;42.128;24.750;2024-02-16T01:25:52;100302.53;;;8.14;48.66
32875;BME280;40468;42.128;24.750;2024-02-16T01:27:24;100299.84;;;8.17;48.42
32875;BME280;40468;42.128;24.750;2024-02-16T01:28:55;100194.50;;;7.49;48.54
32875;BME280;40468;42.128;24.750;2024-02-16T01:30:28;100306.72;;;8.18;48.36
32875;BME280;40468;42.128;24.750;2024-02-16T01:31:59;100307.53;;;8.20;48.44
32875;BME280;40468;42.128;24.750;2024-02-16T01:33:31;100301.50;;;8.20;48.32
32875;BME280;40468;42.128;24.750;2024-02-16T01:35:05;100304.94;;;8.20;48.43
32875;BME280;40468;42.128;24.750;2024-02-16T01:36:37;100298.00;;;8.21;48.38
32875;BME280;40468;42.128;24.750;2024-02-16T01:38:08;100299.69;;;8.22;48.19
32875;BME280;40468;42.128;24.750;2024-02-16T01:39:41;100293.63;;;8.23;48.15
32875;BME280;40468;42.128;24.750;2024-02-16T01:41:12;100295.47;;;8.19;48.46
32875;BME280;40468;42.128;24.750;2024-02-16T01:42:47;100296.22;;;8.23;48.09
32875;BME280;40468;42.128;24.750;2024-02-16T01:44:18;100297.09;;;8.22;48.08
32875;BME280;40468;42.128;24.750;2024-02-16T01:45:50;100300.53;;;8.24;48.27
32875;BME280;40468;42.128;24.750;2024-02-16T01:47:20;100299.59;;;8.27;48.06
32875;BME280;40468;42.128;24.750;2024-02-16T01:48:52;100299.69;;;8.22;48.00
32875;BME280;40468;42.128;24.750;2024-02-16T01:50:25;100302.22;;;8.25;48.05
32875;BME280;40468;42.128;24.750;2024-02-16T01:52:00;100256.16;;;8.02;47.99
32875;BME280;40468;42.128;24.750;2024-02-16T01:53:31;100303.03;;;8.27;47.93
32875;BME280;40468;42.128;24.750;2024-02-16T01:55:05;100296.06;;;8.29;47.99
32875;BME280;40468;42.128;24.750;2024-02-16T01:56:39;100296.06;;;8.29;47.85
32875;BME280;40468;42.128;24.750;2024-02-16T01:58:11;100299.56;;;8.28;47.98
32875;BME280;40468;42.128;24.750;2024-02-16T01:59:43;100303.00;;;8.29;48.15
32875;BME280;40468;42.128;24.750;2024-02-16T02:01:15;100296.34;;;8.18;47.96
32875;BME280;40468;42.128;24.750;2024-02-16T02:02:47;100303.19;;;8.21;47.81
32875;BME280;40468;42.128;24.750;2024-02-16T02:04:19;100303.97;;;8.25;48.12
32875;BME280;40468;42.128;24.750;2024-02-16T02:05:50;100298.78;;;8.25;48.03
32875;BME280;40468;42.128;24.750;2024-02-16T02:07:25;100275.75;;;8.14;47.92
32875;BME280;40468;42.128;24.750;2024-02-16T02:08:57;100291.84;;;8.25;47.79
32875;BME280;40468;42.128;24.750;2024-02-16T02:10:30;100301.19;;;8.31;47.96
32875;BME280;40468;42.128;24.750;2024-02-16T02:12:01;100304.66;;;8.31;47.89
32875;BME280;40468;42.128;24.750;2024-02-16T02:13:33;100302.06;;;8.31;47.94
32875;BME280;40468;42.128;24.750;2024-02-16T02:15:04;100296.88;;;8.31;47.79
32875;BME280;40468;42.128;24.750;2024-02-16T02:16:36;100305.44;;;8.33;47.71
32875;BME280;40468;42.128;24.750;2024-02-16T02:18:08;100295.88;;;8.35;47.83
32875;BME280;40468;42.128;24.750;2024-02-16T02:19:40;100301.06;;;8.35;47.62
32875;BME280;40468;42.128;24.750;2024-02-16T02:21:10;100299.31;;;8.36;47.75
32875;BME280;40468;42.128;24.750;2024-02-16T02:22:45;100299.31;;;8.36;47.59
32875;BME280;40468;42.128;24.750;2024-02-16T02:24:16;100295.03;;;8.35;47.58
32875;BME280;40468;42.128;24.750;2024-02-16T02:25:48;100302.78;;;8.36;47.58
32875;BME280;40468;42.128;24.750;2024-02-16T02:27:19;100297.56;;;8.36;47.63
32875;BME280;40468;42.128;24.750;2024-02-16T02:28:51;100294.13;;;8.36;47.47
32875;BME280;40468;42.128;24.750;2024-02-16T02:30:22;100294.97;;;8.36;47.50
32875;BME280;40468;42.128;24.750;2024-02-16T02:31:54;100294.97;;;8.36;47.50
32875;BME280;40468;42.128;24.750;2024-02-16T02:33:25;100292.38;;;8.36;47.66
32875;BME280;40468;42.128;24.750;2024-02-16T02:34:57;100295.88;;;8.35;47.62
32875;BME280;40468;42.128;24.750;2024-02-16T02:36:28;100295.91;;;8.34;47.77
32875;BME280;40468;42.128;24.750;2024-02-16T02:38:01;100291.59;;;8.34;47.72
32875;BME280;40468;42.128;24.750;2024-02-16T02:39:34;100288.19;;;8.32;47.82
32875;BME280;40468;42.128;24.750;2024-02-16T02:41:06;100288.19;;;8.32;47.59
32875;BME280;40468;42.128;24.750;2024-02-16T02:42:37;100288.19;;;8.32;47.80
32875;BME280;40468;42.128;24.750;2024-02-16T02:44:08;100288.28;;;8.29;47.80
32875;BME280;40468;42.128;24.750;2024-02-16T02:45:40;100284.78;;;8.30;47.77
32875;BME280;40468;42.128;24.750;2024-02-16T02:47:11;100285.69;;;8.29;47.58
32875;BME280;40468;42.128;24.750;2024-02-16T02:48:43;100284.84;;;8.29;47.66
32875;BME280;40468;42.128;24.750;2024-02-16T02:50:15;100204.19;;;7.74;47.74
32875;BME280;40468;42.128;24.750;2024-02-16T02:51:46;100279.75;;;8.24;47.95
32875;BME280;40468;42.128;24.750;2024-02-16T02:53:19;100288.44;;;8.23;47.68
32875;BME280;40468;42.128;24.750;2024-02-16T02:54:52;100291.91;;;8.22;48.07
32875;BME280;40468;42.128;24.750;2024-02-16T02:56:23;100280.84;;;8.17;48.00
32875;BME280;40468;42.128;24.750;2024-02-16T02:57:55;100289.47;;;8.17;48.04
32875;BME280;40468;42.128;24.750;2024-02-16T02:59:26;100281.72;;;8.16;48.06
32875;BME280;40468;42.128;24.750;2024-02-16T03:00:58;100282.63;;;8.15;48.22
32875;BME280;40468;42.128;24.750;2024-02-16T03:02:29;100283.53;;;8.14;48.16
32875;BME280;40468;42.128;24.750;2024-02-16T03:04:01;100290.47;;;8.13;48.23
32875;BME280;40468;42.128;24.750;2024-02-16T03:05:32;100282.72;;;8.10;48.11
32875;BME280;40468;42.128;24.750;2024-02-16T03:07:04;100288.91;;;8.06;48.09
32875;BME280;40468;42.128;24.750;2024-02-16T03:08:37;100289.72;;;8.08;48.34
32875;BME280;40468;42.128;24.750;2024-02-16T03:10:08;100294.16;;;8.05;48.38
32875;BME280;40468;42.128;24.750;2024-02-16T03:11:40;100290.81;;;8.00;48.27
32875;BME280;40468;42.128;24.750;2024-02-16T03:13:12;100288.31;;;7.96;48.51
32875;BME280;40468;42.128;24.750;2024-02-16T03:14:44;100288.38;;;7.93;48.35
32875;BME280;40468;42.128;24.750;2024-02-16T03:16:15;100282.38;;;7.91;48.67
32875;BME280;40468;42.128;24.750;2024-02-16T03:17:47;100286.75;;;7.89;48.47
32875;BME280;40468;42.128;24.750;2024-02-16T03:19:18;100284.22;;;7.88;48.63
32875;BME280;40468;42.128;24.750;2024-02-16T03:20:49;100287.66;;;7.88;48.74
32875;BME280;40468;42.128;24.750;2024-02-16T03:22:21;100292.00;;;7.88;48.73
32875;BME280;40468;42.128;24.750;2024-02-16T03:23:54;100287.72;;;7.85;48.69
32875;BME280;40468;42.128;24.750;2024-02-16T03:25:25;100299.84;;;7.85;48.70
32875;BME280;40468;42.128;24.750;2024-02-16T03:26:57;100297.25;;;7.85;48.47
32875;BME280;40468;42.128;24.750;2024-02-16T03:28:28;100285.25;;;7.81;48.52
32875;BME280;40468;42.128;24.750;2024-02-16T03:29:59;100292.09;;;7.83;48.49
32875;BME280;40468;42.128;24.750;2024-02-16T03:31:32;100293.91;;;7.81;48.33
32875;BME280;40468;42.128;24.750;2024-02-16T03:33:04;100291.31;;;7.81;48.40
32875;BME280;40468;42.128;24.750;2024-02-16T03:34:36;100294.75;;;7.82;48.48
32875;BME280;40468;42.128;24.750;2024-02-16T03:36:07;100292.16;;;7.82;48.37
32875;BME280;40468;42.128;24.750;2024-02-16T03:37:39;100297.38;;;7.80;48.26
32875;BME280;40468;42.128;24.750;2024-02-16T03:39:11;100298.19;;;7.82;48.37
32875;BME280;40468;42.128;24.750;2024-02-16T03:40:43;100297.34;;;7.82;48.28
32875;BME280;40468;42.128;24.750;2024-02-16T03:42:14;100301.69;;;7.81;48.22
32875;BME280;40468;42.128;24.750;2024-02-16T03:43:46;100295.63;;;7.81;48.17
32875;BME280;40468;42.128;24.750;2024-02-16T03:45:16;100305.06;;;7.83;48.20
32875;BME280;40468;42.128;24.750;2024-02-16T03:46:49;100299.13;;;7.80;48.16
32875;BME280;40468;42.128;24.750;2024-02-16T03:48:19;100304.19;;;7.84;48.34
32875;BME280;40468;42.128;24.750;2024-02-16T03:49:51;100309.31;;;7.86;48.52
32875;BME280;40468;42.128;24.750;2024-02-16T03:51:23;100316.22;;;7.87;48.19
32875;BME280;40468;42.128;24.750;2024-02-16T03:52:54;100319.66;;;7.87;48.27
32875;BME280;40468;42.128;24.750;2024-02-16T03:54:27;100312.72;;;7.88;48.32
32875;BME280;40468;42.128;24.750;2024-02-16T03:55:58;100319.66;;;7.87;48.37
32875;BME280;40468;42.128;24.750;2024-02-16T03:57:30;100311.88;;;7.87;48.36
32875;BME280;40468;42.128;24.750;2024-02-16T03:59:03;100321.38;;;7.88;48.23
32875;BME280;40468;42.128;24.750;2024-02-16T04:00:35;100312.75;;;7.86;48.32
32875;BME280;40468;42.128;24.750;2024-02-16T04:02:08;100318.81;;;7.87;48.46
32875;BME280;40468;42.128;24.750;2024-02-16T04:03:40;100315.41;;;7.85;48.43
32875;BME280;40468;42.128;24.750;2024-02-16T04:05:12;100312.75;;;7.86;48.37
32875;BME280;40468;42.128;24.750;2024-02-16T04:06:42;100311.97;;;7.84;48.49
32875;BME280;40468;42.128;24.750;2024-02-16T04:08:14;100317.16;;;7.84;48.46
32875;BME280;40468;42.128;24.750;2024-02-16T04:09:46;100318.84;;;7.85;48.45
32875;BME280;40468;42.128;24.750;2024-02-16T04:11:18;100316.34;;;7.82;48.48
32875;BME280;40468;42.128;24.750;2024-02-16T04:12:50;100315.50;;;7.80;48.52
32875;BME280;40468;42.128;24.750;2024-02-16T04:14:21;100322.41;;;7.81;48.57
32875;BME280;40468;42.128;24.750;2024-02-16T04:15:53;100319.00;;;7.79;48.62
32875;BME280;40468;42.128;24.750;2024-02-16T04:17:24;100314.72;;;7.78;48.61
32875;BME280;40468;42.128;24.750;2024-02-16T04:18:55;100316.50;;;7.76;48.69
32875;BME280;40468;42.128;24.750;2024-02-16T04:20:26;100316.56;;;7.73;48.54
32875;BME280;40468;42.128;24.750;2024-02-16T04:21:58;100315.72;;;7.72;48.71
32875;BME280;40468;42.128;24.750;2024-02-16T04:23:29;100310.63;;;7.68;48.88
32875;BME280;40468;42.128;24.750;2024-02-16T04:25:02;100307.22;;;7.66;48.76
32875;BME280;40468;42.128;24.750;2024-02-16T04:26:34;100300.44;;;7.62;48.87
32875;BME280;40468;42.128;24.750;2024-02-16T04:28:06;100310.72;;;7.65;48.92
32875;BME280;40468;42.128;24.750;2024-02-16T04:29:37;100310.72;;;7.65;48.81
32875;BME280;40468;42.128;24.750;2024-02-16T04:31:08;100316.75;;;7.65;48.86
32875;BME280;40468;42.128;24.750;2024-02-16T04:32:40;100316.81;;;7.64;49.06
32875;BME280;40468;42.128;24.750;2024-02-16T04:34:11;100320.25;;;7.63;49.19
32875;BME280;40468;42.128;24.750;2024-02-16T04:35:43;100315.13;;;7.61;49.08
32875;BME280;40468;42.128;24.750;2024-02-16T04:37:17;100324.59;;;7.64;49.19
32875;BME280;40468;42.128;24.750;2024-02-16T04:38:49;100332.34;;;7.64;49.08
32875;BME280;40468;42.128;24.750;2024-02-16T04:40:21;100328.84;;;7.66;49.08
32875;BME280;40468;42.128;24.750;2024-02-16T04:41:53;100325.44;;;7.64;49.22
32875;BME280;40468;42.128;24.750;2024-02-16T04:43:24;100321.25;;;7.59;49.27
32875;BME280;40468;42.128;24.750;2024-02-16T04:44:56;100331.53;;;7.62;49.34
32875;BME280;40468;42.128;24.750;2024-02-16T04:46:27;100331.50;;;7.63;49.44
32875;BME280;40468;42.128;24.750;2024-02-16T04:48:02;100334.94;;;7.64;49.36
32875;BME280;40468;42.128;24.750;2024-02-16T04:49:33;100323.84;;;7.57;49.29
32875;BME280;40468;42.128;24.750;2024-02-16T04:51:05;100329.78;;;7.62;49.38
32875;BME280;40468;42.128;24.750;2024-02-16T04:52:37;100329.75;;;7.64;49.51
32875;BME280;40468;42.128;24.750;2024-02-16T04:54:11;100327.19;;;7.62;49.51
32875;BME280;40468;42.128;24.750;2024-02-16T04:55:43;100326.31;;;7.63;49.52
32875;BME280;40468;42.128;24.750;2024-02-16T04:57:15;100329.84;;;7.61;49.47
32875;BME280;40468;42.128;24.750;2024-02-16T04:58:45;100331.53;;;7.62;49.58
32875;BME280;40468;42.128;24.750;2024-02-16T05:00:17;100328.94;;;7.62;49.71
32875;BME280;40468;42.128;24.750;2024-02-16T05:01:48;100324.72;;;7.58;49.67
32875;BME280;40468;42.128;24.750;2024-02-16T05:03:20;100327.31;;;7.58;49.67
32875;BME280;40468;42.128;24.750;2024-02-16T05:04:51;100337.53;;;7.64;49.67
32875;BME280;40468;42.128;24.750;2024-02-16T05:06:22;100336.69;;;7.63;49.50
32875;BME280;40468;42.128;24.750;2024-02-16T05:07:54;100336.63;;;7.65;49.72
32875;BME280;40468;42.128;24.750;2024-02-16T05:09:25;100332.38;;;7.62;49.52
32875;BME280;40468;42.128;24.750;2024-02-16T05:10:59;100340.06;;;7.67;49.59
32875;BME280;40468;42.128;24.750;2024-02-16T05:12:30;100341.81;;;7.65;49.58
32875;BME280;40468;42.128;24.750;2024-02-16T05:14:02;100288.94;;;7.36;49.51
32875;BME280;40468;42.128;24.750;2024-02-16T05:15:33;100345.31;;;7.64;49.64
32875;BME280;40468;42.128;24.750;2024-02-16T05:17:05;100341.81;;;7.65;49.70
32875;BME280;40468;42.128;24.750;2024-02-16T05:18:35;100350.50;;;7.64;49.63
32875;BME280;40468;42.128;24.750;2024-02-16T05:20:10;100344.53;;;7.60;49.61
32875;BME280;40468;42.128;24.750;2024-02-16T05:21:44;100345.47;;;7.58;49.59
32875;BME280;40468;42.128;24.750;2024-02-16T05:23:16;100346.31;;;7.58;49.58
32875;BME280;40468;42.128;24.750;2024-02-16T05:24:47;100350.66;;;7.58;49.52
32875;BME280;40468;42.128;24.750;2024-02-16T05:26:20;100342.91;;;7.56;49.71
32875;BME280;40468;42.128;24.750;2024-02-16T05:27:51;100349.06;;;7.52;49.64
32875;BME280;40468;42.128;24.750;2024-02-16T05:29:23;100351.72;;;7.49;49.73
32875;BME280;40468;42.128;24.750;2024-02-16T05:30:54;100350.06;;;7.46;49.67
32875;BME280;40468;42.128;24.750;2024-02-16T05:32:26;100356.16;;;7.44;49.85
32875;BME280;40468;42.128;24.750;2024-02-16T05:33:58;100357.91;;;7.43;49.73
32875;BME280;40468;42.128;24.750;2024-02-16T05:35:29;100360.59;;;7.39;49.72
32875;BME280;40468;42.128;24.750;2024-02-16T05:37:04;100355.41;;;7.39;49.73
32875;BME280;40468;42.128;24.750;2024-02-16T05:38:37;100364.09;;;7.36;49.64
32875;BME280;40468;42.128;24.750;2024-02-16T05:40:13;100336.91;;;7.17;49.74
32875;BME280;40468;42.128;24.750;2024-02-16T05:41:53;100363.47;;;7.26;49.97
32875;BME280;40468;42.128;24.750;2024-02-16T05:43:25;100358.50;;;7.16;49.92
32875;BME280;40468;42.128;24.750;2024-02-16T05:44:56;100373.88;;;7.25;50.09
32875;BME280;40468;42.128;24.750;2024-02-16T05:46:28;100362.84;;;7.15;49.91
32875;BME280;40468;42.128;24.750;2024-02-16T05:47:59;100379.13;;;7.22;50.08
32875;BME280;40468;42.128;24.750;2024-02-16T05:49:31;100367.09;;;7.18;50.14
32875;BME280;40468;42.128;24.750;2024-02-16T05:51:03;100376.53;;;7.22;50.10
32875;BME280;40468;42.128;24.750;2024-02-16T05:52:33;100379.13;;;7.20;50.33
32875;BME280;40468;42.128;24.750;2024-02-16T05:54:05;100379.19;;;7.19;50.23
32875;BME280;40468;42.128;24.750;2024-02-16T05:55:38;100375.78;;;7.15;50.27
32875;BME280;40468;42.128;24.750;2024-02-16T05:57:11;100380.13;;;7.15;50.55
32875;BME280;40468;42.128;24.750;2024-02-16T05:58:43;100381.09;;;7.11;50.48
32875;BME280;40468;42.128;24.750;2024-02-16T06:00:15;100382.78;;;7.12;50.34
32875;BME280;40468;42.128;24.750;2024-02-16T06:01:46;100375.06;;;7.09;50.48
32875;BME280;40468;42.128;24.750;2024-02-16T06:03:17;100347.00;;;6.90;50.48
32875;BME280;40468;42.128;24.750;2024-02-16T06:04:49;100371.72;;;7.03;50.54
32875;BME280;40468;42.128;24.750;2024-02-16T06:06:20;100377.72;;;7.05;50.58
32875;BME280;40468;42.128;24.750;2024-02-16T06:07:52;100381.22;;;7.04;50.54
32875;BME280;40468;42.128;24.750;2024-02-16T06:09:23;100373.44;;;7.04;50.36
32875;BME280;40468;42.128;24.750;2024-02-16T06:10:54;100381.28;;;7.01;50.47
32875;BME280;40468;42.128;24.750;2024-02-16T06:12:28;100376.09;;;7.01;50.57
32875;BME280;40468;42.128;24.750;2024-02-16T06:13:58;100386.47;;;7.01;50.75
32875;BME280;40468;42.128;24.750;2024-02-16T06:15:31;100374.38;;;7.00;50.60
32875;BME280;40468;42.128;24.750;2024-02-16T06:17:03;100388.06;;;7.07;50.65
32875;BME280;40468;42.128;24.750;2024-02-16T06:18:34;100384.59;;;7.06;50.74
32875;BME280;40468;42.128;24.750;2024-02-16T06:20:07;100377.59;;;7.12;50.44
32875;BME280;40468;42.128;24.750;2024-02-16T06:21:39;100388.72;;;7.17;50.55
32875;BME280;40468;42.128;24.750;2024-02-16T06:23:10;100381.78;;;7.19;50.64
32875;BME280;40468;42.128;24.750;2024-02-16T06:24:42;100387.69;;;7.24;50.45
32875;BME280;40468;42.128;24.750;2024-02-16T06:26:13;100387.66;;;7.25;50.46
32875;BME280;40468;42.128;24.750;2024-02-16T06:27:46;100386.75;;;7.28;50.43
32875;BME280;40468;42.128;24.750;2024-02-16T06:29:17;100393.56;;;7.32;50.50
32875;BME280;40468;42.128;24.750;2024-02-16T06:30:49;100398.66;;;7.35;50.58
32875;BME280;40468;42.128;24.750;2024-02-16T06:32:21;100389.94;;;7.39;50.40
32875;BME280;40468;42.128;24.750;2024-02-16T06:33:52;100394.19;;;7.42;50.43
32875;BME280;40468;42.128;24.750;2024-02-16T06:35:24;100301.31;;;6.86;50.29
32875;BME280;40468;42.128;24.750;2024-02-16T06:36:55;100394.94;;;7.48;50.36
32875;BME280;40468;42.128;24.750;2024-02-16T06:38:26;100397.44;;;7.51;50.14
32875;BME280;40468;42.128;24.750;2024-02-16T06:39:57;100393.88;;;7.56;50.21
32875;BME280;40468;42.128;24.750;2024-02-16T06:41:29;100401.53;;;7.62;49.97
32875;BME280;40468;42.128;24.750;2024-02-16T06:43:01;100397.94;;;7.67;50.16
32875;BME280;40468;42.128;24.750;2024-02-16T06:44:34;100399.63;;;7.68;49.82
32875;BME280;40468;42.128;24.750;2024-02-16T06:46:05;100399.47;;;7.76;49.78
32875;BME280;40468;42.128;24.750;2024-02-16T06:47:37;100393.28;;;7.80;49.95
32875;BME280;40468;42.128;24.750;2024-02-16T06:49:08;100400.06;;;7.86;49.83
32875;BME280;40468;42.128;24.750;2024-02-16T06:50:40;100398.25;;;7.89;49.71
32875;BME280;40468;42.128;24.750;2024-02-16T06:52:11;100402.50;;;7.93;49.69
32875;BME280;40468;42.128;24.750;2024-02-16T06:53:42;100405.81;;;7.98;49.50
32875;BME280;40468;42.128;24.750;2024-02-16T06:55:13;100404.88;;;8.01;49.48
32875;BME280;40468;42.128;24.750;2024-02-16T06:56:45;100391.00;;;8.04;49.28
32875;BME280;40468;42.128;24.750;2024-02-16T06:58:17;100406.16;;;8.19;49.15
32875;BME280;40468;42.128;24.750;2024-02-16T06:59:50;100325.69;;;7.88;49.07
32875;BME280;40468;42.128;24.750;2024-02-16T07:01:23;100400.88;;;8.56;48.73
32875;BME280;40468;42.128;24.750;2024-02-16T07:02:56;100399.34;;;8.80;48.07
32875;BME280;40468;42.128;24.750;2024-02-16T07:04:28;100402.16;;;9.04;47.50
32875;BME280;40468;42.128;24.750;2024-02-16T07:05:59;100400.66;;;9.25;47.03
32875;BME280;40468;42.128;24.750;2024-02-16T07:07:30;100397.59;;;9.40;46.76
32875;BME280;40468;42.128;24.750;2024-02-16T07:09:04;100394.75;;;9.48;46.80
32875;BME280;40468;42.128;24.750;2024-02-16T07:10:36;100404.22;;;9.50;46.73
32875;BME280;40468;42.128;24.750;2024-02-16T07:12:07;100399.78;;;9.54;46.84
32875;BME280;40468;42.128;24.750;2024-02-16T07:13:41;100391.34;;;9.74;46.44
32875;BME280;40468;42.128;24.750;2024-02-16T07:15:13;100398.22;;;10.01;46.20
32875;BME280;40468;42.128;24.750;2024-02-16T07:16:44;100381.47;;;10.10;45.58
32875;BME280;40468;42.128;24.750;2024-02-16T07:18:16;100395.84;;;10.47;45.39
32875;BME280;40468;42.128;24.750;2024-02-16T07:19:47;100409.69;;;10.96;44.26
32875;BME280;40468;42.128;24.750;2024-02-16T07:21:19;100406.53;;;11.57;43.34
32875;BME280;40468;42.128;24.750;2024-02-16T07:22:52;100398.66;;;11.79;42.31
32875;BME280;40468;42.128;24.750;2024-02-16T07:24:24;100395.94;;;11.82;42.16
32875;BME280;40468;42.128;24.750;2024-02-16T07:25:55;100400.84;;;11.68;42.17
32875;BME280;40468;42.128;24.750;2024-02-16T07:27:28;100396.63;;;11.43;42.54
32875;BME280;40468;42.128;24.750;2024-02-16T07:29:01;100415.72;;;11.22;42.59
32875;BME280;40468;42.128;24.750;2024-02-16T07:30:33;100407.91;;;10.98;43.11
32875;BME280;40468;42.128;24.750;2024-02-16T07:32:04;100411.97;;;10.82;43.20
32875;BME280;40468;42.128;24.750;2024-02-16T07:33:36;100407.41;;;10.63;43.64
32875;BME280;40468;42.128;24.750;2024-02-16T07:35:07;100415.31;;;10.62;43.85
32875;BME280;40468;42.128;24.750;2024-02-16T07:36:40;100408.59;;;10.80;43.83
32875;BME280;40468;42.128;24.750;2024-02-16T07:38:11;100407.78;;;11.01;43.14
32875;BME280;40468;42.128;24.750;2024-02-16T07:39:43;100417.59;;;11.18;42.74
32875;BME280;40468;42.128;24.750;2024-02-16T07:41:14;100404.72;;;11.13;42.68
32875;BME280;40468;42.128;24.750;2024-02-16T07:42:45;100412.38;;;11.18;42.63
32875;BME280;40468;42.128;24.750;2024-02-16T07:44:18;100405.88;;;11.28;42.88
32875;BME280;40468;42.128;24.750;2024-02-16T07:45:50;100404.94;;;11.31;42.56
32875;BME280;40468;42.128;24.750;2024-02-16T07:47:21;100399.81;;;11.28;42.79
32875;BME280;40468;42.128;24.750;2024-02-16T07:48:52;100408.44;;;11.30;42.75
32875;BME280;40468;42.128;24.750;2024-02-16T07:50:24;100407.72;;;11.48;42.26
32875;BME280;40468;42.128;24.750;2024-02-16T07:51:55;100410.22;;;11.95;42.00
32875;BME280;40468;42.128;24.750;2024-02-16T07:53:28;100409.50;;;12.53;40.69
32875;BME280;40468;42.128;24.750;2024-02-16T07:54:58;100408.47;;;12.96;40.01
32875;BME280;40468;42.128;24.750;2024-02-16T07:56:30;100406.16;;;13.47;39.24
32875;BME280;40468;42.128;24.750;2024-02-16T07:58:02;100410.22;;;13.89;38.22
32875;BME280;40468;42.128;24.750;2024-02-16T07:59:34;100399.81;;;14.05;37.97